createdAt,value
2018-07-28T00:02:01.857Z,9.27
2018-07-28T00:04:30.357Z,9.20
2018-07-28T00:06:58.836Z,9.13
2018-07-28T00:09:27.296Z,8.60
2018-07-28T00:11:55.898Z,8.50
2018-07-28T00:14:24.413Z,8.53
2018-07-28T00:16:52.881Z,9.10
2018-07-28T00:19:21.738Z,9.13
2018-07-28T00:21:50.241Z,8.97
2018-07-28T00:24:18.716Z,8.13
2018-07-28T00:26:47.247Z,8.97
2018-07-28T00:29:15.713Z,8.90
2018-07-28T00:31:44.286Z,8.60
2018-07-28T00:34:12.781Z,8.70
2018-07-28T00:36:41.234Z,8.87
2018-07-28T00:39:11.694Z,7.97
2018-07-28T00:41:40.202Z,9.20
2018-07-28T00:44:08.845Z,8.40
2018-07-28T00:46:37.357Z,8.47
2018-07-28T00:49:06.744Z,8.90
2018-07-28T00:51:35.498Z,8.80
2018-07-28T00:54:04.059Z,8.20
2018-07-28T00:56:32.976Z,8.83
2018-07-28T00:59:01.505Z,8.77
2018-07-28T01:01:30.153Z,9.33
2018-07-28T01:03:58.657Z,9.10
2018-07-28T01:06:27.173Z,8.27
2018-07-28T01:08:55.668Z,8.83
2018-07-28T01:11:24.171Z,9.70
2018-07-28T01:13:52.754Z,7.90
2018-07-28T01:16:21.420Z,9.13
2018-07-28T01:18:49.929Z,8.20
2018-07-28T01:21:18.552Z,8.40
2018-07-28T01:23:47.077Z,9.10
2018-07-28T01:26:15.605Z,8.70
2018-07-28T01:28:48.786Z,7.60
2018-07-28T01:31:17.369Z,8.80
2018-07-28T01:33:45.829Z,8.10
2018-07-28T01:36:14.357Z,8.63
2018-07-28T01:38:42.828Z,9.60
2018-07-28T01:41:11.421Z,8.77
2018-07-28T01:43:39.952Z,8.53
2018-07-28T01:46:08.455Z,9.50
2018-07-28T01:48:36.937Z,9.37
2018-07-28T01:51:05.388Z,8.90
2018-07-28T01:53:33.921Z,9.27
2018-07-28T01:56:02.386Z,8.47
2018-07-28T01:58:30.892Z,9.40
2018-07-28T02:00:59.371Z,8.77
2018-07-28T02:03:27.877Z,8.20
2018-07-28T02:05:56.415Z,9.40
2018-07-28T02:08:24.900Z,9.13
2018-07-28T02:10:53.377Z,9.00
2018-07-28T02:13:21.906Z,8.80
2018-07-28T02:15:50.431Z,9.13
2018-07-28T02:18:18.928Z,9.10
2018-07-28T02:20:47.392Z,9.60
2018-07-28T02:23:15.873Z,8.60
2018-07-28T02:25:44.423Z,8.87
2018-07-28T02:28:12.910Z,8.80
2018-07-28T02:30:41.398Z,9.17
2018-07-28T02:33:09.922Z,9.10
2018-07-28T02:35:38.420Z,8.90
2018-07-28T02:38:07.002Z,9.77
2018-07-28T02:40:35.534Z,9.43
2018-07-28T02:43:04.058Z,9.13
2018-07-28T02:45:32.837Z,9.20
2018-07-28T02:48:01.377Z,9.07
2018-07-28T02:50:29.930Z,9.40
2018-07-28T02:52:58.448Z,8.43
2018-07-28T02:55:26.953Z,9.60
2018-07-28T02:57:55.422Z,8.80
2018-07-28T03:00:24.022Z,9.13
2018-07-28T03:02:52.464Z,9.00
2018-07-28T03:05:20.960Z,9.83
2018-07-28T03:07:49.527Z,9.80
2018-07-28T03:10:18.057Z,9.20
2018-07-28T03:12:46.520Z,8.97
2018-07-28T03:15:28.469Z,8.60
2018-07-28T03:17:57.321Z,8.93
2018-07-28T03:20:26.014Z,8.03
2018-07-28T03:22:54.497Z,8.90
2018-07-28T03:25:23.371Z,8.93
2018-07-28T03:27:51.905Z,8.97
2018-07-28T03:30:20.421Z,9.00
2018-07-28T03:32:48.908Z,8.20
2018-07-28T03:35:17.454Z,8.77
2018-07-28T03:37:46.506Z,8.97
2018-07-28T03:40:15.060Z,10.20
2018-07-28T03:42:43.674Z,9.20
2018-07-28T03:45:12.257Z,10.33
2018-07-28T03:47:41.837Z,10.30
2018-07-28T03:50:10.761Z,10.83
2018-07-28T03:52:39.492Z,10.97
2018-07-28T03:55:09.194Z,11.37
2018-07-28T03:57:37.697Z,11.87
2018-07-28T04:00:09.637Z,12.10
2018-07-28T04:02:38.373Z,11.20
2018-07-28T04:05:08.334Z,11.03
2018-07-28T04:07:37.341Z,10.80
2018-07-28T04:10:06.048Z,11.17
2018-07-28T04:12:34.557Z,11.00
2018-07-28T04:15:03.273Z,10.17
2018-07-28T04:17:31.733Z,10.53
2018-07-28T04:20:00.214Z,9.63
2018-07-28T04:22:28.740Z,10.03
2018-07-28T04:24:58.109Z,10.00
2018-07-28T04:27:26.605Z,8.93
2018-07-28T04:29:55.078Z,8.47
2018-07-28T04:32:23.597Z,9.77
2018-07-28T04:34:52.058Z,9.20
2018-07-28T04:37:20.523Z,8.43
2018-07-28T04:39:49.046Z,8.60
2018-07-28T04:42:17.543Z,8.90
2018-07-28T04:44:46.014Z,8.43
2018-07-28T04:47:14.485Z,8.77
2018-07-28T04:49:43.027Z,8.63
2018-07-28T04:52:11.531Z,8.07
2018-07-28T04:54:40.037Z,8.30
2018-07-28T04:57:08.545Z,9.03
2018-07-28T04:59:37.040Z,8.67
2018-07-28T05:02:05.727Z,8.03
2018-07-28T05:04:34.226Z,9.10
2018-07-28T05:07:03.170Z,8.70
2018-07-28T05:09:31.625Z,8.93
2018-07-28T05:12:00.129Z,9.90
2018-07-28T05:14:28.653Z,8.40
2018-07-28T05:16:57.150Z,9.33
2018-07-28T05:19:25.660Z,9.33
2018-07-28T05:21:54.244Z,9.30
2018-07-28T05:24:22.717Z,9.53
2018-07-28T05:26:51.255Z,8.43
2018-07-28T05:29:19.805Z,10.77
2018-07-28T05:31:48.402Z,10.00
2018-07-28T05:34:16.937Z,8.93
2018-07-28T05:36:45.423Z,9.28
2018-07-28T05:39:13.945Z,10.15
2018-07-28T05:41:42.460Z,9.53
2018-07-28T05:44:10.944Z,9.75
2018-07-28T05:46:39.429Z,10.03
2018-07-28T05:49:07.894Z,9.68
2018-07-28T05:51:36.393Z,10.53
2018-07-28T05:54:04.970Z,9.63
2018-07-28T05:56:33.448Z,9.98
2018-07-28T05:59:01.898Z,9.60
2018-07-28T06:01:30.433Z,10.10
2018-07-28T06:03:58.951Z,8.88
2018-07-28T06:06:27.473Z,9.83
2018-07-28T06:08:56.958Z,9.58
2018-07-28T06:14:24.272Z,9.00
2018-07-28T06:16:52.833Z,9.60
2018-07-28T06:19:21.289Z,10.05
2018-07-28T06:21:49.808Z,9.53
2018-07-28T06:24:18.663Z,9.98
2018-07-28T06:26:47.160Z,10.13
2018-07-28T06:29:15.638Z,9.55
2018-07-28T06:31:44.300Z,9.98
2018-07-28T06:34:12.753Z,10.58
2018-07-28T06:36:41.227Z,9.05
2018-07-28T06:39:12.062Z,9.25
2018-07-28T06:41:40.670Z,10.05
2018-07-28T06:44:09.253Z,10.43
2018-07-28T06:46:38.240Z,11.50
2018-07-28T06:49:07.361Z,10.43
2018-07-28T06:51:35.880Z,9.88
2018-07-28T06:54:04.375Z,10.43
2018-07-28T06:56:32.902Z,10.10
2018-07-28T06:59:01.430Z,9.40
2018-07-28T07:01:29.948Z,9.50
2018-07-28T07:03:58.468Z,10.15
2018-07-28T07:06:26.977Z,10.48
2018-07-28T07:08:55.513Z,9.60
2018-07-28T07:11:23.988Z,10.08
2018-07-28T07:13:52.488Z,10.05
2018-07-28T07:16:21.081Z,11.18
2018-07-28T07:18:49.569Z,13.03
2018-07-28T07:21:18.381Z,12.25
2018-07-28T07:23:46.929Z,13.60
2018-07-28T07:26:15.517Z,13.90
2018-07-28T07:28:44.324Z,11.85
2018-07-28T07:31:12.857Z,14.23
2018-07-28T07:33:41.416Z,12.40
2018-07-28T07:36:09.942Z,13.00
2018-07-28T07:38:38.535Z,14.60
2018-07-28T07:41:07.057Z,13.33
2018-07-28T07:43:35.561Z,13.10
2018-07-28T07:46:04.092Z,13.83
2018-07-28T07:48:32.584Z,12.43
2018-07-28T07:51:01.089Z,12.70
2018-07-28T07:53:29.629Z,12.57
2018-07-28T07:55:58.167Z,10.80
2018-07-28T07:58:26.685Z,11.70
2018-07-28T08:00:55.191Z,12.83
2018-07-28T08:03:23.742Z,10.93
2018-07-28T08:05:52.630Z,10.90
2018-07-28T08:08:21.129Z,8.53
2018-07-28T08:10:49.622Z,8.20
2018-07-28T08:13:18.138Z,7.60
2018-07-28T08:15:46.622Z,6.90
2018-07-28T08:18:15.131Z,7.47
2018-07-28T08:20:43.613Z,6.40
2018-07-28T08:23:12.090Z,6.13
2018-07-28T08:25:40.967Z,5.90
2018-07-28T08:28:09.549Z,5.27
2018-07-28T08:30:38.057Z,5.63
2018-07-28T08:33:06.946Z,6.10
2018-07-28T08:35:35.421Z,5.40
2018-07-28T08:38:03.954Z,5.50
2018-07-28T08:40:32.494Z,5.20
2018-07-28T08:43:01.097Z,5.60
2018-07-28T08:45:29.613Z,5.30
2018-07-28T08:47:58.090Z,5.40
2018-07-28T08:50:26.637Z,5.10
2018-07-28T08:52:55.112Z,5.53
2018-07-28T08:55:23.993Z,6.23
2018-07-28T08:57:52.488Z,5.40
2018-07-28T09:00:20.978Z,4.90
2018-07-28T09:02:49.663Z,5.33
2018-07-28T09:05:18.147Z,5.20
2018-07-28T09:07:46.644Z,4.57
2018-07-28T09:10:15.092Z,4.80
2018-07-28T09:12:43.684Z,4.30
2018-07-28T09:15:12.494Z,4.50
2018-07-28T09:17:41.032Z,4.20
2018-07-28T09:20:09.868Z,4.27
2018-07-28T09:22:38.444Z,5.07
2018-07-28T09:25:07.524Z,4.90
2018-07-28T09:27:36.029Z,5.00
2018-07-28T09:30:05.128Z,5.03
2018-07-28T09:32:33.676Z,5.10
2018-07-28T09:35:02.160Z,5.47
2018-07-28T09:37:30.725Z,4.47
2018-07-28T09:39:59.227Z,5.23
2018-07-28T09:42:27.666Z,4.60
2018-07-28T09:44:56.210Z,4.50
2018-07-28T09:47:24.661Z,4.53
2018-07-28T09:49:53.141Z,5.40
2018-07-28T09:52:21.669Z,5.17
2018-07-28T09:54:50.225Z,5.43
2018-07-28T09:57:18.753Z,5.00
2018-07-28T09:59:47.214Z,6.70
2018-07-28T10:02:15.736Z,4.83
2018-07-28T10:04:44.239Z,6.20
2018-07-28T10:07:12.732Z,6.77
2018-07-28T10:09:41.204Z,6.57
2018-07-28T10:12:09.733Z,7.17
2018-07-28T10:14:38.198Z,7.13
2018-07-28T10:17:07.037Z,7.13
2018-07-28T10:19:35.569Z,7.03
2018-07-28T10:22:04.106Z,6.50
2018-07-28T10:24:32.614Z,6.40
2018-07-28T10:27:01.138Z,6.73
2018-07-28T10:29:29.633Z,5.67
2018-07-28T10:31:58.230Z,5.73
2018-07-28T10:34:26.803Z,5.83
2018-07-28T10:36:55.422Z,6.80
2018-07-28T10:39:23.968Z,6.40
2018-07-28T10:41:52.542Z,5.57
2018-07-28T10:44:21.036Z,6.40
2018-07-28T10:46:49.537Z,5.60
2018-07-28T10:49:18.021Z,6.73
2018-07-28T10:51:46.583Z,5.77
2018-07-28T10:54:15.051Z,5.10
2018-07-28T10:56:43.574Z,5.33
2018-07-28T10:59:12.073Z,5.60
2018-07-28T11:01:40.584Z,6.53
2018-07-28T11:04:09.071Z,6.30
2018-07-28T11:06:37.577Z,5.93
2018-07-28T11:09:08.088Z,5.97
2018-07-28T11:11:36.656Z,5.70
2018-07-28T11:14:05.487Z,6.33
2018-07-28T11:16:34.126Z,6.10
2018-07-28T11:19:02.647Z,6.80
2018-07-28T11:21:31.190Z,7.13
2018-07-28T11:24:01.126Z,6.70
2018-07-28T11:26:29.678Z,7.40
2018-07-28T11:28:58.180Z,8.57
2018-07-28T11:31:37.832Z,7.97
2018-07-28T11:34:17.433Z,9.17
2018-07-28T11:36:57.091Z,9.23
2018-07-28T11:39:36.558Z,9.50
2018-07-28T11:42:16.047Z,9.17
2018-07-28T11:44:55.680Z,10.40
2018-07-28T11:47:24.192Z,10.13
2018-07-28T11:49:52.653Z,10.30
2018-07-28T11:52:21.166Z,9.30
2018-07-28T11:54:49.653Z,9.83
2018-07-28T11:57:18.230Z,11.30
2018-07-28T11:59:46.756Z,11.40
2018-07-28T12:02:15.288Z,12.00
2018-07-28T12:04:44.206Z,10.33
2018-07-28T12:07:12.714Z,9.00
2018-07-28T12:09:41.189Z,8.80
2018-07-28T12:12:09.696Z,9.10
2018-07-28T12:14:38.169Z,8.30
2018-07-28T12:17:07.281Z,9.13
2018-07-28T12:19:35.757Z,8.73
2018-07-28T12:22:04.409Z,8.40
2018-07-28T12:24:32.954Z,7.63
2018-07-28T12:27:01.493Z,8.43
2018-07-28T12:29:30.309Z,8.00
2018-07-28T12:31:58.833Z,7.33
2018-07-28T12:34:27.306Z,7.42
2018-07-28T12:36:55.777Z,7.45
2018-07-28T12:39:24.307Z,8.13
2018-07-28T12:41:52.765Z,7.65
2018-07-28T12:44:21.580Z,7.17
2018-07-28T12:46:50.029Z,8.60
2018-07-28T12:49:18.508Z,7.77
2018-07-28T12:51:47.115Z,8.87
2018-07-28T12:54:15.610Z,8.73
2018-07-28T12:56:44.297Z,8.20
2018-07-28T12:59:12.852Z,7.50
2018-07-28T13:01:41.360Z,8.30
2018-07-28T13:04:09.849Z,8.47
2018-07-28T13:06:38.438Z,9.87
2018-07-28T13:09:09.036Z,10.10
2018-07-28T13:11:37.510Z,9.23
2018-07-28T13:14:05.996Z,9.10
2018-07-28T13:16:34.829Z,9.30
2018-07-28T13:19:03.304Z,9.90
2018-07-28T13:21:31.821Z,8.80
2018-07-28T13:24:00.306Z,8.57
2018-07-28T13:26:28.896Z,8.67
2018-07-28T13:28:57.728Z,9.80
2018-07-28T13:31:26.192Z,9.93
2018-07-28T13:33:55.083Z,8.77
2018-07-28T13:36:23.592Z,7.70
2018-07-28T13:38:52.116Z,7.70
2018-07-28T13:41:20.949Z,8.53
2018-07-28T13:43:49.420Z,8.30
2018-07-28T13:46:17.917Z,7.40
2018-07-28T13:48:46.758Z,8.30
2018-07-28T13:51:15.242Z,7.83
2018-07-28T13:53:43.727Z,6.70
2018-07-28T13:56:12.293Z,5.90
2018-07-28T13:58:40.784Z,5.90
2018-07-28T14:01:09.292Z,6.00
2018-07-28T14:03:37.777Z,5.13
2018-07-28T14:06:07.407Z,5.30
2018-07-28T14:08:35.941Z,5.25
2018-07-28T14:11:04.571Z,5.40
2018-07-28T14:13:33.129Z,5.10
2018-07-28T14:16:01.964Z,5.80
2018-07-28T14:18:30.518Z,4.90
2018-07-28T14:20:58.996Z,4.53
2018-07-28T14:23:27.502Z,4.73
2018-07-28T14:25:56.076Z,3.80
2018-07-28T14:28:24.685Z,3.60
2018-07-28T14:30:53.567Z,3.53
2018-07-28T14:33:22.018Z,3.70
2018-07-28T14:35:50.513Z,2.90
2018-07-28T14:38:18.996Z,3.60
2018-07-28T14:40:47.497Z,3.73
2018-07-28T14:43:15.981Z,5.90
2018-07-28T14:45:44.577Z,7.23
2018-07-28T14:48:13.096Z,6.53
2018-07-28T14:50:41.628Z,6.83
2018-07-28T14:53:10.096Z,7.90
2018-07-28T14:55:38.565Z,8.43
2018-07-28T14:58:07.133Z,7.93
2018-07-28T15:00:35.605Z,7.10
2018-07-28T15:03:04.085Z,6.60
2018-07-28T15:05:32.520Z,7.60
2018-07-28T15:08:01.102Z,6.10
2018-07-28T15:10:29.566Z,7.50
2018-07-28T15:12:58.224Z,7.53
2018-07-28T15:15:26.748Z,7.80
2018-07-28T15:17:55.205Z,6.97
2018-07-28T15:20:23.686Z,7.27
2018-07-28T15:22:52.193Z,9.23
2018-07-28T15:25:20.671Z,6.90
2018-07-28T15:27:49.216Z,7.83
2018-07-28T15:30:17.697Z,9.50
2018-07-28T15:32:46.243Z,8.23
2018-07-28T15:35:14.733Z,9.03
2018-07-28T15:37:43.192Z,8.00
2018-07-28T15:40:11.656Z,8.90
2018-07-28T15:42:40.249Z,9.50
2018-07-28T15:45:08.745Z,9.00
2018-07-28T15:47:37.348Z,9.00
2018-07-28T15:50:06.151Z,9.93
2018-07-28T15:52:34.604Z,9.93
2018-07-28T15:55:03.181Z,8.40
2018-07-28T15:57:31.629Z,9.13
2018-07-28T16:00:00.146Z,8.70
2018-07-28T16:02:28.617Z,5.90
2018-07-28T16:04:57.268Z,7.43
2018-07-28T16:07:25.786Z,5.60
2018-07-28T16:09:54.258Z,5.60
2018-07-28T16:12:22.773Z,4.87
2018-07-28T16:14:51.245Z,5.57
2018-07-28T16:17:19.733Z,5.30
2018-07-28T16:19:48.270Z,4.47
2018-07-28T16:22:16.784Z,5.30
2018-07-28T16:24:45.260Z,4.47
2018-07-28T16:27:13.753Z,5.87
2018-07-28T16:29:42.249Z,4.60
2018-07-28T16:32:10.735Z,5.07
2018-07-28T16:34:39.276Z,5.67
2018-07-28T16:37:07.765Z,5.10
2018-07-28T16:39:36.586Z,5.43
2018-07-28T16:42:05.304Z,5.30
2018-07-28T16:44:33.854Z,5.30
2018-07-28T16:47:02.356Z,5.23
2018-07-28T16:49:30.875Z,5.20
2018-07-28T16:51:59.421Z,4.63
2018-07-28T16:54:27.930Z,4.90
2018-07-28T16:56:56.456Z,4.57
2018-07-28T16:59:24.932Z,5.60
2018-07-28T17:01:53.395Z,4.87
2018-07-28T17:04:22.073Z,4.90
2018-07-28T17:06:50.525Z,5.07
2018-07-28T17:09:19.005Z,4.00
2018-07-28T17:11:47.821Z,4.13
2018-07-28T17:14:16.286Z,4.93
2018-07-28T17:16:44.772Z,4.33
2018-07-28T17:19:13.290Z,4.60
2018-07-28T17:21:41.756Z,3.70
2018-07-28T17:24:10.253Z,4.60
2018-07-28T17:26:38.706Z,4.83
2018-07-28T17:29:07.345Z,3.30
2018-07-28T17:31:35.818Z,4.07
2018-07-28T17:34:04.323Z,3.30
2018-07-28T17:36:32.885Z,3.93
2018-07-28T17:39:01.374Z,3.50
2018-07-28T17:41:29.916Z,3.10
2018-07-28T17:43:58.376Z,3.70
2018-07-28T17:46:26.868Z,3.43
2018-07-28T17:48:55.355Z,3.30
2018-07-28T17:51:23.840Z,3.50
2018-07-28T17:53:52.448Z,4.37
2018-07-28T17:56:21.034Z,2.70
2018-07-28T17:58:49.542Z,2.70
2018-07-28T18:01:18.037Z,3.07
2018-07-28T18:03:46.590Z,2.93
2018-07-28T18:06:15.029Z,3.60
2018-07-28T18:08:43.493Z,2.70
2018-07-28T18:11:11.972Z,2.57
2018-07-28T18:13:40.457Z,3.60
2018-07-28T18:16:08.969Z,2.10
2018-07-28T18:18:37.442Z,3.10
2018-07-28T18:21:06.305Z,3.07
2018-07-28T18:23:34.858Z,2.90
2018-07-28T18:26:03.375Z,3.13
2018-07-28T18:28:31.884Z,2.73
2018-07-28T18:31:00.356Z,3.10
2018-07-28T18:33:28.884Z,2.90
2018-07-28T18:35:57.386Z,2.47
2018-07-28T18:38:25.881Z,2.70
2018-07-28T18:40:54.411Z,3.00
2018-07-28T18:43:23.042Z,2.20
2018-07-28T18:45:51.628Z,2.50
2018-07-28T18:48:20.100Z,2.40
2018-07-28T18:50:49.004Z,2.10
2018-07-28T18:53:17.493Z,3.10
2018-07-28T18:55:45.938Z,2.30
2018-07-28T18:58:14.417Z,2.30
2018-07-28T19:00:42.892Z,2.87
2018-07-28T19:03:11.381Z,2.23
2018-07-28T19:05:39.817Z,2.23
2018-07-28T19:08:08.311Z,2.20
2018-07-28T19:10:36.829Z,2.10
2018-07-28T19:13:10.487Z,2.40
2018-07-28T19:15:38.973Z,2.23
2018-07-28T19:18:13.035Z,2.37
2018-07-28T19:20:41.540Z,2.10
2018-07-28T19:23:15.155Z,2.23
2018-07-28T19:25:43.654Z,1.60
2018-07-28T19:28:17.436Z,2.47
2018-07-28T19:30:45.942Z,2.80
2018-07-28T19:33:14.423Z,1.80
2018-07-28T19:35:48.058Z,2.83
2018-07-28T19:38:16.591Z,2.27
2018-07-28T19:40:45.082Z,3.50
2018-07-28T19:43:13.560Z,2.23
2018-07-28T19:45:42.184Z,3.07
2018-07-28T19:48:10.668Z,2.83
2018-07-28T19:50:39.149Z,1.70
2018-07-28T19:53:07.616Z,2.37
2018-07-28T19:55:36.104Z,2.00
2018-07-28T19:58:04.923Z,3.27
2018-07-28T20:00:33.390Z,2.70
2018-07-28T20:03:01.889Z,2.10
2018-07-28T20:05:30.388Z,2.53
2018-07-28T20:07:58.849Z,1.93
2018-07-28T20:10:27.469Z,2.10
2018-07-28T20:12:56.067Z,2.23
2018-07-28T20:15:24.608Z,2.10
2018-07-28T20:17:53.106Z,2.43
2018-07-28T20:20:21.641Z,1.93
2018-07-28T20:22:50.104Z,1.97
2018-07-28T20:25:18.602Z,2.13
2018-07-28T20:27:47.066Z,2.17
2018-07-28T20:30:15.607Z,2.20
2018-07-28T20:32:44.169Z,1.87
2018-07-28T20:35:12.646Z,2.40
2018-07-28T20:37:41.262Z,2.53
2018-07-28T20:40:09.777Z,2.10
2018-07-28T20:42:38.244Z,2.33
2018-07-28T20:45:06.694Z,2.40
2018-07-28T20:47:35.163Z,1.80
2018-07-28T20:50:03.729Z,2.30
2018-07-28T20:52:32.274Z,1.80
2018-07-28T20:55:00.911Z,2.50
2018-07-28T20:57:29.729Z,2.10
2018-07-28T20:59:58.218Z,2.53
2018-07-28T21:02:26.756Z,2.13
2018-07-28T21:04:55.372Z,2.33
2018-07-28T21:07:23.949Z,2.60
2018-07-28T21:09:52.432Z,3.20
2018-07-28T21:12:20.977Z,2.50
2018-07-28T21:14:49.652Z,2.17
2018-07-28T21:17:18.438Z,2.40
2018-07-28T21:19:47.156Z,1.87
2018-07-28T21:22:15.652Z,2.40
2018-07-28T21:24:44.235Z,3.00
2018-07-28T21:27:12.708Z,2.00
2018-07-28T21:29:41.247Z,2.10
2018-07-28T21:32:09.799Z,2.93
2018-07-28T21:34:38.249Z,2.50
2018-07-28T21:37:06.759Z,2.93
2018-07-28T21:39:35.249Z,2.90
2018-07-28T21:42:03.833Z,2.30
2018-07-28T21:44:32.344Z,2.10
2018-07-28T21:47:00.829Z,2.93
2018-07-28T21:49:29.318Z,2.57
2018-07-28T21:51:57.781Z,2.23
2018-07-28T21:54:26.289Z,3.43
2018-07-28T21:56:55.038Z,3.10
2018-07-28T21:59:23.545Z,2.00
2018-07-28T22:01:52.102Z,3.77
2018-07-28T22:04:25.527Z,2.93
2018-07-28T22:06:54.048Z,2.80
2018-07-28T22:09:22.545Z,3.40
2018-07-28T22:11:51.101Z,3.03
2018-07-28T22:14:19.593Z,2.70
2018-07-28T22:16:48.250Z,2.30
2018-07-28T22:19:16.906Z,2.20
2018-07-28T22:21:45.437Z,2.57
2018-07-28T22:24:14.390Z,2.57
2018-07-28T22:26:42.870Z,2.47
2018-07-28T22:29:11.373Z,2.73
2018-07-28T22:31:40.181Z,2.40
2018-07-28T22:34:08.844Z,3.20
2018-07-28T22:36:37.394Z,3.07
2018-07-28T22:39:08.161Z,3.37
2018-07-28T22:41:36.719Z,3.00
2018-07-28T22:44:05.277Z,2.47
2018-07-28T22:46:33.809Z,3.27
2018-07-28T22:49:02.393Z,2.90
2018-07-28T22:51:31.036Z,2.97
2018-07-28T22:53:59.540Z,2.90
2018-07-28T22:56:28.429Z,2.93
2018-07-28T22:58:56.970Z,3.33
2018-07-28T23:01:25.461Z,2.60
2018-07-28T23:03:53.971Z,4.20
2018-07-28T23:06:22.481Z,3.17
2018-07-28T23:08:51.020Z,3.00
2018-07-28T23:11:19.528Z,3.30
2018-07-28T23:13:47.976Z,3.07
2018-07-28T23:16:16.510Z,2.97
2018-07-28T23:18:45.002Z,3.00
2018-07-28T23:21:13.549Z,3.80
2018-07-28T23:23:42.028Z,4.27
2018-07-28T23:26:10.497Z,3.13
2018-07-28T23:28:39.036Z,2.53
2018-07-28T23:31:07.727Z,2.80
2018-07-28T23:33:36.213Z,3.07
2018-07-28T23:36:04.752Z,3.03
2018-07-28T23:38:33.341Z,3.37
2018-07-28T23:41:01.877Z,2.57
2018-07-28T23:43:30.364Z,3.70
2018-07-28T23:45:58.887Z,2.83
2018-07-28T23:48:27.356Z,3.43
2018-07-28T23:50:55.893Z,3.00
2018-07-28T23:53:24.386Z,3.63
2018-07-28T23:55:52.854Z,3.07
2018-07-28T23:58:21.476Z,2.90
